Woodstock, United Kingdom
Current Conditions -  °F | °C
As of 5:50 PM on Sunday 21 Dec 2014 (Local Time) from EGTK Reporting Station
Moderate Rain Moderate Rain  
Wind Chill: 42°   Ceiling: 400
Heat Index: 48°   Visibility: 2mi
Dew Point: 48°   Wind: 18mph
Humidity: 100%   Direction: 220°SW
Pressure: 30.18"   Gusts: NA
Location:  51.85°N, 1.35°W
Report Text: EGTK 211750Z 22016KT 3200 RA OVC004 09/09 Q1022
Loading
Personal Weather Stations






























Interactive Weather Map New forecast layout! Learn more

10-Day Weather Forecast

Advertisements
Track Severe Weather on mobile